Time;durP1;ratioP1;P1;durP2;ratioP2;P2;SDS_P1;SDS_P2;PMS_P1;PMS_P2;Temp;Humidity;BMP_temperature;BMP_pressure;BME280_temperature;BME280_humidity;BME280_pressure;Samples;Min_cycle;Max_cycle;Signal;HPM_P1;HPM_P2
2024/03/18 00:00:55;;;;;;;;;;;23.20;50.90;;;;;;5065660;28;19905;-41
2024/03/18 00:03:21;;;;;;;;;;;23.20;51.00;;;;;;5069541;28;19938;-41
2024/03/18 00:05:47;;;;;;;;;;;23.20;50.90;;;;;;5065779;28;19916;-43
2024/03/18 00:08:14;;;;;;;;;;;23.20;50.90;;;;;;5067144;28;19912;-42
2024/03/18 00:10:40;;;;;;;;;;;23.10;50.90;;;;;;5075901;28;19989;-43
2024/03/18 00:13:06;;;;;;;;;;;23.10;50.90;;;;;;5075789;28;19917;-45
2024/03/18 00:15:32;;;;;;;;;;;23.10;50.90;;;;;;5072172;28;19917;-42
2024/03/18 00:17:57;;;;;;;;;;;23.10;50.90;;;;;;5073183;28;19912;-42
2024/03/18 00:20:24;;;;;;;;;;;23.10;50.90;;;;;;5066588;28;20323;-43
2024/03/18 00:22:50;;;;;;;;;;;23.10;51.00;;;;;;5082417;28;19931;-41
2024/03/18 00:25:16;;;;;;;;;;;23.10;51.20;;;;;;5075136;28;20405;-44
2024/03/18 00:27:42;;;;;;;;;;;23.10;51.20;;;;;;5065034;28;19909;-45
2024/03/18 00:30:11;;;;;;;;;;;23.10;51.20;;;;;;5066509;28;19920;-44
2024/03/18 00:32:39;;;;;;;;;;;23.10;51.20;;;;;;5069430;28;19984;-42
2024/03/18 00:35:06;;;;;;;;;;;23.10;51.20;;;;;;5073246;28;19916;-42
2024/03/18 00:37:31;;;;;;;;;;;23.10;51.20;;;;;;5082191;28;19916;-42
2024/03/18 00:39:58;;;;;;;;;;;23.10;51.20;;;;;;5075500;28;20027;-42
2024/03/18 00:42:24;;;;;;;;;;;23.10;51.20;;;;;;5071924;28;19931;-43
2024/03/18 00:44:50;;;;;;;;;;;23.10;51.20;;;;;;5071768;28;19984;-42
2024/03/18 00:47:16;;;;;;;;;;;23.00;51.20;;;;;;5074329;28;19912;-42
2024/03/18 00:49:41;;;;;;;;;;;23.00;51.20;;;;;;5075592;28;19924;-42
2024/03/18 00:52:08;;;;;;;;;;;23.00;51.40;;;;;;5082019;28;20429;-43
2024/03/18 00:54:34;;;;;;;;;;;23.10;51.60;;;;;;5070414;28;19913;-44
2024/03/18 00:56:59;;;;;;;;;;;23.10;51.60;;;;;;5086073;28;19909;-45
2024/03/18 00:59:25;;;;;;;;;;;23.10;51.60;;;;;;5075249;28;19924;-47
2024/03/18 01:01:52;;;;;;;;;;;23.10;51.50;;;;;;5078735;28;19922;-46
2024/03/18 01:04:22;;;;;;;;;;;23.10;51.50;;;;;;5072996;28;19919;-42
2024/03/18 01:06:49;;;;;;;;;;;23.00;51.50;;;;;;5082421;28;19916;-44
2024/03/18 01:09:16;;;;;;;;;;;23.00;51.40;;;;;;5080917;28;19928;-42
2024/03/18 01:11:42;;;;;;;;;;;23.00;51.50;;;;;;5074928;28;19935;-46
2024/03/18 01:14:09;;;;;;;;;;;23.00;51.40;;;;;;5072880;28;20662;-43
2024/03/18 01:16:35;;;;;;;;;;;22.90;51.40;;;;;;5068069;28;20053;-44
2024/03/18 01:19:02;;;;;;;;;;;22.90;51.50;;;;;;5084302;28;19936;-44
2024/03/18 01:21:28;;;;;;;;;;;23.00;51.70;;;;;;5063930;28;19913;-43
2024/03/18 01:23:55;;;;;;;;;;;23.00;51.80;;;;;;5065221;28;19924;-43
2024/03/18 01:26:21;;;;;;;;;;;23.00;51.80;;;;;;5080901;28;19916;-43
2024/03/18 01:28:47;;;;;;;;;;;23.00;51.70;;;;;;5083875;28;19928;-42
2024/03/18 01:31:14;;;;;;;;;;;23.00;51.70;;;;;;5073108;28;19912;-42
2024/03/18 01:33:40;;;;;;;;;;;23.00;51.70;;;;;;5079129;28;19938;-41
2024/03/18 01:36:07;;;;;;;;;;;23.00;51.70;;;;;;5080219;28;19908;-43
2024/03/18 01:38:34;;;;;;;;;;;22.90;51.70;;;;;;5074386;28;19912;-45
2024/03/18 01:41:00;;;;;;;;;;;22.90;51.60;;;;;;5081804;28;19947;-46
2024/03/18 01:43:26;;;;;;;;;;;22.90;52.00;;;;;;5080210;28;19927;-45
2024/03/18 01:45:52;;;;;;;;;;;22.90;51.70;;;;;;5081696;28;20019;-43
2024/03/18 01:48:19;;;;;;;;;;;22.90;51.90;;;;;;5074489;28;19912;-43
2024/03/18 01:50:46;;;;;;;;;;;22.90;52.00;;;;;;5074566;28;19955;-42
2024/03/18 01:53:14;;;;;;;;;;;22.90;51.90;;;;;;5067189;28;19934;-43
2024/03/18 01:55:41;;;;;;;;;;;22.90;51.90;;;;;;5080001;28;19976;-42
2024/03/18 01:58:07;;;;;;;;;;;22.90;51.90;;;;;;5080409;28;19912;-44
2024/03/18 02:00:35;;;;;;;;;;;22.90;51.90;;;;;;5074663;28;19912;-42
2024/03/18 02:03:02;;;;;;;;;;;22.90;51.90;;;;;;5077076;28;19915;-43
2024/03/18 02:05:29;;;;;;;;;;;22.90;51.80;;;;;;5080444;28;19912;-42
2024/03/18 02:07:58;;;;;;;;;;;22.80;51.80;;;;;;5073965;28;19912;-46
2024/03/18 02:10:25;;;;;;;;;;;22.80;51.90;;;;;;5071325;28;19920;-41
2024/03/18 02:12:52;;;;;;;;;;;22.90;52.10;;;;;;5070999;28;19909;-44
2024/03/18 02:15:20;;;;;;;;;;;22.90;52.10;;;;;;5064110;28;19995;-42
2024/03/18 02:17:47;;;;;;;;;;;22.90;52.10;;;;;;5068340;28;19908;-41
2024/03/18 02:20:16;;;;;;;;;;;22.90;52.10;;;;;;5072879;28;19919;-46
2024/03/18 02:22:43;;;;;;;;;;;22.80;52.00;;;;;;5066691;28;20448;-41
2024/03/18 02:25:09;;;;;;;;;;;22.80;52.00;;;;;;5071760;28;19953;-44
2024/03/18 02:27:36;;;;;;;;;;;22.80;52.00;;;;;;5071330;28;20653;-42
2024/03/18 02:30:04;;;;;;;;;;;22.80;52.00;;;;;;5071141;28;19969;-44
2024/03/18 02:32:33;;;;;;;;;;;22.80;52.10;;;;;;5067031;28;19920;-42
2024/03/18 02:34:59;;;;;;;;;;;22.80;52.20;;;;;;5062131;28;19912;-42
2024/03/18 02:37:25;;;;;;;;;;;22.80;52.20;;;;;;5066051;28;19917;-42
2024/03/18 02:39:52;;;;;;;;;;;22.80;52.20;;;;;;5068304;28;19986;-42
2024/03/18 02:42:19;;;;;;;;;;;22.80;52.10;;;;;;5072957;28;19979;-41
2024/03/18 02:44:45;;;;;;;;;;;22.80;52.10;;;;;;5068762;28;19917;-42
2024/03/18 02:47:14;;;;;;;;;;;22.80;52.10;;;;;;5063835;28;19909;-43
2024/03/18 02:49:43;;;;;;;;;;;22.70;52.00;;;;;;5072070;28;19921;-44
2024/03/18 02:52:09;;;;;;;;;;;22.70;52.10;;;;;;5074706;28;20034;-46
2024/03/18 02:54:35;;;;;;;;;;;22.80;52.30;;;;;;5069789;28;19967;-42
2024/03/18 02:57:02;;;;;;;;;;;22.80;52.30;;;;;;5071225;28;19958;-43
2024/03/18 02:59:28;;;;;;;;;;;22.80;52.30;;;;;;5063449;28;19913;-43
2024/03/18 03:01:54;;;;;;;;;;;22.80;52.20;;;;;;5066847;28;19968;-42
2024/03/18 03:04:21;;;;;;;;;;;22.70;52.20;;;;;;5071969;28;20043;-41
2024/03/18 03:06:47;;;;;;;;;;;22.70;52.10;;;;;;5069979;28;19981;-43
2024/03/18 03:09:15;;;;;;;;;;;22.70;52.70;;;;;;5072365;28;19927;-43
2024/03/18 03:11:42;;;;;;;;;;;22.70;52.20;;;;;;5075913;28;19915;-42
2024/03/18 03:14:09;;;;;;;;;;;22.70;52.30;;;;;;5061609;28;19912;-41
2024/03/18 03:16:36;;;;;;;;;;;22.80;52.40;;;;;;5075315;28;20339;-46
2024/03/18 03:19:02;;;;;;;;;;;22.70;52.30;;;;;;5079506;28;19979;-45
2024/03/18 03:21:28;;;;;;;;;;;22.70;52.30;;;;;;5070500;28;19984;-42
2024/03/18 03:23:55;;;;;;;;;;;22.70;52.30;;;;;;5078467;28;19912;-42
2024/03/18 03:26:21;;;;;;;;;;;22.70;52.30;;;;;;5087534;28;19927;-44
2024/03/18 03:28:47;;;;;;;;;;;22.70;52.20;;;;;;5071682;28;19923;-42
2024/03/18 03:31:14;;;;;;;;;;;22.70;52.40;;;;;;5067282;28;19948;-42
2024/03/18 03:33:40;;;;;;;;;;;22.70;52.40;;;;;;5072504;28;19912;-42
2024/03/18 03:36:07;;;;;;;;;;;22.70;52.40;;;;;;5069316;28;19940;-46
2024/03/18 03:38:33;;;;;;;;;;;22.70;52.40;;;;;;5085811;28;19920;-42
2024/03/18 03:40:59;;;;;;;;;;;22.70;52.40;;;;;;5066862;28;19913;-44
2024/03/18 03:43:25;;;;;;;;;;;22.70;52.40;;;;;;5083751;28;19926;-43
2024/03/18 03:45:57;;;;;;;;;;;22.70;52.40;;;;;;5083461;28;19919;-43
2024/03/18 03:48:26;;;;;;;;;;;22.60;52.40;;;;;;5073295;28;19912;-45
2024/03/18 03:50:53;;;;;;;;;;;22.60;52.50;;;;;;5068827;28;19955;-42
2024/03/18 03:53:19;;;;;;;;;;;22.70;52.60;;;;;;5069152;28;19919;-42
2024/03/18 03:55:45;;;;;;;;;;;22.70;52.50;;;;;;5082389;28;20126;-42
2024/03/18 03:58:11;;;;;;;;;;;22.70;52.50;;;;;;5068766;28;20008;-45
2024/03/18 04:00:40;;;;;;;;;;;22.70;52.50;;;;;;5076935;28;19918;-43
2024/03/18 04:03:06;;;;;;;;;;;22.60;52.40;;;;;;5077632;28;19916;-41
2024/03/18 04:05:32;;;;;;;;;;;22.60;52.40;;;;;;5079666;28;19920;-44
2024/03/18 04:07:58;;;;;;;;;;;22.60;52.40;;;;;;5066187;28;19990;-43
2024/03/18 04:10:24;;;;;;;;;;;22.60;52.50;;;;;;5075322;28;19920;-43
2024/03/18 04:12:50;;;;;;;;;;;22.70;52.60;;;;;;5076192;28;20349;-46
2024/03/18 04:15:16;;;;;;;;;;;22.70;52.50;;;;;;5082300;28;19968;-43
2024/03/18 04:17:42;;;;;;;;;;;22.70;52.50;;;;;;5083521;28;19915;-45
2024/03/18 04:20:18;;;;;;;;;;;22.70;52.50;;;;;;5081742;28;19956;-44
2024/03/18 04:22:51;;;;;;;;;;;22.60;52.50;;;;;;5076749;28;19984;-43
2024/03/18 04:25:17;;;;;;;;;;;22.60;52.50;;;;;;5081183;28;19954;-43
2024/03/18 04:27:44;;;;;;;;;;;22.60;52.50;;;;;;5078211;28;19928;-44
2024/03/18 04:30:19;;;;;;;;;;;22.60;52.60;;;;;;5079660;28;19956;-43
2024/03/18 04:32:45;;;;;;;;;;;22.60;52.60;;;;;;5077803;28;19908;-46
2024/03/18 04:35:11;;;;;;;;;;;22.60;52.60;;;;;;5072976;28;20003;-44
2024/03/18 04:37:55;;;;;;;;;;;22.70;52.60;;;;;;5076266;28;19913;-47
2024/03/18 04:40:24;;;;;;;;;;;22.60;52.50;;;;;;5081351;28;19968;-46
2024/03/18 04:42:51;;;;;;;;;;;22.60;52.50;;;;;;5082595;28;19975;-42
2024/03/18 04:45:17;;;;;;;;;;;22.50;52.50;;;;;;5074880;28;19983;-43
2024/03/18 04:47:44;;;;;;;;;;;22.50;52.50;;;;;;5076196;28;19932;-44
2024/03/18 04:50:13;;;;;;;;;;;22.60;52.70;;;;;;5082417;28;19956;-42
2024/03/18 04:52:39;;;;;;;;;;;22.60;52.70;;;;;;5082287;28;19951;-45
2024/03/18 04:55:05;;;;;;;;;;;22.60;52.60;;;;;;5074972;28;19927;-43
2024/03/18 04:57:34;;;;;;;;;;;22.60;52.60;;;;;;5079744;28;20360;-44
2024/03/18 05:00:00;;;;;;;;;;;22.60;52.60;;;;;;5072675;28;19952;-47
2024/03/18 05:02:26;;;;;;;;;;;22.50;52.50;;;;;;5078911;28;20285;-42
2024/03/18 05:04:52;;;;;;;;;;;22.50;52.60;;;;;;5075358;28;19912;-43
2024/03/18 05:07:18;;;;;;;;;;;22.60;52.70;;;;;;5075561;28;19934;-45
2024/03/18 05:09:44;;;;;;;;;;;22.60;52.70;;;;;;5076468;28;19990;-42
2024/03/18 05:12:13;;;;;;;;;;;22.60;52.60;;;;;;5072231;28;20590;-43
2024/03/18 05:14:39;;;;;;;;;;;22.60;52.60;;;;;;5081959;28;19915;-43
2024/03/18 05:17:05;;;;;;;;;;;22.50;52.50;;;;;;5074008;28;19912;-42
2024/03/18 05:19:31;;;;;;;;;;;22.50;52.50;;;;;;5074509;28;19912;-44
2024/03/18 05:21:57;;;;;;;;;;;22.50;52.60;;;;;;5079488;28;19915;-44
2024/03/18 05:24:23;;;;;;;;;;;22.50;52.60;;;;;;5066633;28;19912;-44
2024/03/18 05:26:49;;;;;;;;;;;22.60;53.30;;;;;;5081640;28;19916;-44
2024/03/18 05:29:15;;;;;;;;;;;22.60;52.70;;;;;;5073900;28;19956;-43
2024/03/18 05:31:41;;;;;;;;;;;22.60;52.70;;;;;;5073120;28;19912;-46
2024/03/18 05:34:08;;;;;;;;;;;22.50;52.60;;;;;;5081761;28;19912;-43
2024/03/18 05:36:34;;;;;;;;;;;22.50;52.60;;;;;;5074987;28;19912;-42
2024/03/18 05:39:00;;;;;;;;;;;22.50;52.50;;;;;;5075406;28;19915;-43
2024/03/18 05:41:26;;;;;;;;;;;22.40;52.60;;;;;;5080298;28;19913;-44
2024/03/18 05:43:52;;;;;;;;;;;22.50;52.70;;;;;;5077541;28;19924;-43
2024/03/18 05:46:21;;;;;;;;;;;22.50;52.70;;;;;;5079231;28;19993;-45
2024/03/18 05:48:47;;;;;;;;;;;22.50;52.60;;;;;;5081632;28;19909;-45
2024/03/18 05:51:13;;;;;;;;;;;22.50;52.60;;;;;;5076902;28;19915;-43
2024/03/18 05:53:40;;;;;;;;;;;22.50;52.60;;;;;;5077348;28;19909;-45
2024/03/18 05:56:06;;;;;;;;;;;22.50;52.60;;;;;;5078267;28;19920;-43
2024/03/18 05:58:39;;;;;;;;;;;22.40;52.60;;;;;;5079033;28;19992;-44
2024/03/18 06:01:10;;;;;;;;;;;22.50;52.70;;;;;;5063953;28;19913;-43
2024/03/18 06:03:39;;;;;;;;;;;22.50;52.70;;;;;;5072015;28;20007;-44
2024/03/18 06:06:06;;;;;;;;;;;22.50;52.70;;;;;;5073738;28;19924;-43
2024/03/18 06:08:35;;;;;;;;;;;22.50;52.60;;;;;;5080907;28;19916;-48
2024/03/18 06:11:01;;;;;;;;;;;22.50;52.60;;;;;;5074307;28;20356;-48
2024/03/18 06:13:26;;;;;;;;;;;22.50;52.60;;;;;;5080088;28;19909;-45
2024/03/18 06:15:52;;;;;;;;;;;22.40;52.70;;;;;;5081512;28;19912;-45
2024/03/18 06:18:18;;;;;;;;;;;22.50;52.80;;;;;;5069697;28;19913;-43
2024/03/18 06:20:48;;;;;;;;;;;22.50;52.70;;;;;;5078701;28;19915;-45
2024/03/18 06:23:18;;;;;;;;;;;22.50;52.70;;;;;;5071813;28;20012;-46
2024/03/18 06:25:59;;;;;;;;;;;22.50;52.70;;;;;;5076205;28;19934;-43
2024/03/18 06:28:29;;;;;;;;;;;22.40;52.70;;;;;;5075335;28;19916;-43
2024/03/18 06:30:55;;;;;;;;;;;22.40;52.60;;;;;;5069617;28;19916;-46
2024/03/18 06:33:24;;;;;;;;;;;22.40;52.70;;;;;;5072028;28;20603;-45
2024/03/18 06:35:56;;;;;;;;;;;22.40;52.70;;;;;;5076929;28;19916;-46
2024/03/18 06:38:23;;;;;;;;;;;22.50;52.70;;;;;;5072415;28;19999;-44
2024/03/18 06:40:49;;;;;;;;;;;22.50;52.70;;;;;;5071604;28;19913;-44
2024/03/18 06:43:17;;;;;;;;;;;22.50;52.70;;;;;;5071182;28;20051;-43
2024/03/18 06:45:43;;;;;;;;;;;22.40;52.60;;;;;;5072790;28;19912;-44
2024/03/18 06:48:09;;;;;;;;;;;22.40;52.60;;;;;;5072525;28;19915;-43
2024/03/18 06:50:35;;;;;;;;;;;22.40;52.70;;;;;;5074354;28;19921;-47
2024/03/18 06:53:02;;;;;;;;;;;22.40;52.70;;;;;;5075550;28;19915;-44
2024/03/18 06:55:30;;;;;;;;;;;22.50;52.80;;;;;;5079818;28;19935;-45
2024/03/18 06:57:57;;;;;;;;;;;22.50;52.80;;;;;;5078506;28;19913;-44
2024/03/18 07:00:25;;;;;;;;;;;22.50;52.70;;;;;;5075656;28;19993;-44
2024/03/18 07:02:52;;;;;;;;;;;22.40;52.70;;;;;;5078943;28;20092;-45
2024/03/18 07:05:21;;;;;;;;;;;22.40;52.70;;;;;;5078241;28;19919;-46
2024/03/18 07:07:47;;;;;;;;;;;22.40;52.70;;;;;;5077461;28;19916;-44
2024/03/18 07:10:13;;;;;;;;;;;22.40;52.70;;;;;;5073770;28;19917;-47
2024/03/18 07:12:39;;;;;;;;;;;22.50;52.80;;;;;;5073275;28;19971;-46
2024/03/18 07:15:09;;;;;;;;;;;22.50;52.80;;;;;;5074544;28;19940;-46
2024/03/18 07:17:35;;;;;;;;;;;22.40;52.70;;;;;;5076048;28;20025;-44
2024/03/18 07:20:02;;;;;;;;;;;22.40;52.70;;;;;;5076717;28;19916;-44
2024/03/18 07:22:29;;;;;;;;;;;22.40;52.70;;;;;;5080167;28;20425;-43
2024/03/18 07:24:55;;;;;;;;;;;22.40;52.70;;;;;;5079340;28;19916;-43
2024/03/18 07:27:22;;;;;;;;;;;22.40;52.70;;;;;;5075682;28;19916;-45
2024/03/18 07:29:48;;;;;;;;;;;22.40;52.70;;;;;;5075036;28;19920;-44
2024/03/18 07:32:15;;;;;;;;;;;22.40;52.70;;;;;;5074912;28;19936;-44
2024/03/18 07:34:41;;;;;;;;;;;22.40;52.70;;;;;;5073242;28;19913;-46
2024/03/18 07:37:06;;;;;;;;;;;22.40;52.70;;;;;;5079935;28;19931;-43
2024/03/18 07:39:32;;;;;;;;;;;22.40;52.70;;;;;;5072724;28;19970;-45
2024/03/18 07:41:59;;;;;;;;;;;22.30;52.70;;;;;;5077078;28;19915;-44
2024/03/18 07:44:25;;;;;;;;;;;22.40;52.80;;;;;;5079310;28;20357;-44
2024/03/18 07:46:51;;;;;;;;;;;22.40;52.70;;;;;;5068076;28;19927;-47
2024/03/18 07:49:17;;;;;;;;;;;22.40;52.70;;;;;;5080813;28;20031;-46
2024/03/18 07:51:42;;;;;;;;;;;22.40;52.70;;;;;;5073979;28;19912;-45
2024/03/18 07:54:09;;;;;;;;;;;22.40;52.70;;;;;;5072332;28;19909;-44
2024/03/18 07:56:35;;;;;;;;;;;22.30;52.70;;;;;;5075543;28;20011;-46
2024/03/18 07:59:01;;;;;;;;;;;22.30;52.70;;;;;;5075128;28;19919;-43
2024/03/18 08:01:27;;;;;;;;;;;22.30;52.70;;;;;;5070096;28;19998;-46
2024/03/18 08:03:53;;;;;;;;;;;22.40;52.70;;;;;;5077857;28;19916;-50
2024/03/18 08:06:19;;;;;;;;;;;22.40;52.70;;;;;;5066803;28;19988;-44
2024/03/18 08:08:45;;;;;;;;;;;22.40;52.70;;;;;;5078040;28;19909;-47
2024/03/18 08:11:11;;;;;;;;;;;22.30;52.70;;;;;;5075179;28;20336;-49
2024/03/18 08:13:37;;;;;;;;;;;22.30;52.70;;;;;;5075387;28;19912;-46
2024/03/18 08:16:02;;;;;;;;;;;22.30;52.70;;;;;;5071316;28;20003;-48
2024/03/18 08:18:29;;;;;;;;;;;22.30;52.70;;;;;;5076317;28;19916;-44
2024/03/18 08:20:55;;;;;;;;;;;22.40;52.70;;;;;;5076726;28;20372;-43
2024/03/18 08:23:21;;;;;;;;;;;22.40;52.70;;;;;;5067730;28;19927;-44
2024/03/18 08:25:47;;;;;;;;;;;22.30;52.60;;;;;;5066454;28;19908;-44
2024/03/18 08:28:13;;;;;;;;;;;22.30;52.60;;;;;;5067878;28;19913;-48
2024/03/18 08:30:38;;;;;;;;;;;22.30;52.60;;;;;;5072202;28;19980;-45
2024/03/18 08:33:08;;;;;;;;;;;22.30;52.70;;;;;;5065534;28;19908;-44
2024/03/18 08:35:34;;;;;;;;;;;22.30;52.70;;;;;;5073725;28;19908;-45
2024/03/18 08:38:00;;;;;;;;;;;22.40;52.70;;;;;;5065555;28;19963;-43
2024/03/18 08:40:26;;;;;;;;;;;22.40;52.70;;;;;;5083887;28;19916;-44
2024/03/18 08:42:52;;;;;;;;;;;22.30;52.60;;;;;;5083113;28;19938;-43
2024/03/18 08:45:18;;;;;;;;;;;22.30;52.60;;;;;;5075213;28;19943;-45
2024/03/18 08:47:43;;;;;;;;;;;22.30;52.60;;;;;;5071820;28;19917;-43
2024/03/18 08:50:09;;;;;;;;;;;22.30;52.70;;;;;;5080755;28;19942;-44
2024/03/18 08:52:37;;;;;;;;;;;22.30;52.80;;;;;;5068304;28;19913;-46
2024/03/18 08:55:05;;;;;;;;;;;22.30;52.70;;;;;;5072374;28;19913;-43
2024/03/18 08:57:31;;;;;;;;;;;22.30;52.60;;;;;;5068930;28;19917;-45
2024/03/18 08:59:57;;;;;;;;;;;22.30;52.60;;;;;;5069378;28;19916;-44
2024/03/18 09:02:23;;;;;;;;;;;22.30;52.70;;;;;;5069950;28;19912;-45
2024/03/18 09:04:49;;;;;;;;;;;22.20;52.60;;;;;;5072829;28;19958;-45
2024/03/18 09:07:15;;;;;;;;;;;22.30;52.70;;;;;;5072050;28;19951;-45
2024/03/18 09:09:41;;;;;;;;;;;22.30;52.70;;;;;;5081104;28;19920;-46
2024/03/18 09:12:07;;;;;;;;;;;22.30;52.70;;;;;;5084116;28;19920;-46
2024/03/18 09:14:33;;;;;;;;;;;22.30;52.60;;;;;;5080478;28;20373;-45
2024/03/18 09:17:02;;;;;;;;;;;22.30;52.60;;;;;;5081674;28;19979;-46
2024/03/18 09:19:39;;;;;;;;;;;22.30;52.70;;;;;;5077419;28;19977;-43
2024/03/18 09:22:05;;;;;;;;;;;22.20;52.60;;;;;;5075719;28;19909;-44
2024/03/18 09:24:32;;;;;;;;;;;22.20;52.70;;;;;;5074274;28;19959;-45
2024/03/18 09:27:01;;;;;;;;;;;22.30;52.70;;;;;;5074642;28;19972;-47
2024/03/18 09:29:28;;;;;;;;;;;22.30;52.70;;;;;;5078971;28;19920;-44
2024/03/18 09:31:54;;;;;;;;;;;22.30;52.60;;;;;;5072315;28;19913;-45
2024/03/18 09:34:20;;;;;;;;;;;22.30;52.60;;;;;;5063858;28;19912;-45
2024/03/18 09:36:46;;;;;;;;;;;22.20;52.60;;;;;;5076202;28;19938;-48
2024/03/18 09:39:12;;;;;;;;;;;22.20;52.60;;;;;;5080070;28;19915;-45
2024/03/18 09:41:40;;;;;;;;;;;22.20;52.60;;;;;;5078543;28;19919;-43
2024/03/18 09:44:13;;;;;;;;;;;22.30;52.70;;;;;;5080654;28;19927;-46
2024/03/18 09:46:38;;;;;;;;;;;22.30;52.60;;;;;;5073225;28;19909;-47
2024/03/18 09:49:06;;;;;;;;;;;22.30;52.60;;;;;;5070551;28;19928;-47
2024/03/18 09:51:33;;;;;;;;;;;22.30;52.60;;;;;;5073428;28;19917;-46
2024/03/18 09:53:59;;;;;;;;;;;22.20;52.60;;;;;;5070911;28;19930;-45
2024/03/18 09:56:26;;;;;;;;;;;22.20;52.60;;;;;;5077465;28;19920;-44
2024/03/18 09:58:51;;;;;;;;;;;22.20;52.60;;;;;;5075070;28;20015;-47
2024/03/18 10:01:19;;;;;;;;;;;22.30;52.70;;;;;;5073127;28;19913;-45
2024/03/18 10:03:45;;;;;;;;;;;22.30;52.60;;;;;;5070655;28;19982;-45
2024/03/18 10:06:12;;;;;;;;;;;22.30;52.60;;;;;;5080533;28;19912;-46
2024/03/18 10:08:39;;;;;;;;;;;22.20;52.50;;;;;;5074149;28;19912;-45
2024/03/18 10:11:13;;;;;;;;;;;22.20;52.50;;;;;;5073895;28;19909;-47
2024/03/18 10:13:39;;;;;;;;;;;22.20;52.60;;;;;;5067607;28;19908;-46
2024/03/18 10:16:05;;;;;;;;;;;22.20;52.60;;;;;;5080460;28;19912;-46
2024/03/18 10:18:30;;;;;;;;;;;22.30;52.60;;;;;;5075193;28;19919;-45
2024/03/18 10:21:00;;;;;;;;;;;22.30;52.50;;;;;;5081270;28;20365;-45
2024/03/18 10:23:26;;;;;;;;;;;22.20;52.40;;;;;;5080443;28;19967;-45
2024/03/18 10:25:52;;;;;;;;;;;22.20;52.40;;;;;;5081216;28;20460;-44
2024/03/18 10:28:18;;;;;;;;;;;22.20;52.50;;;;;;5079725;28;19990;-45
2024/03/18 10:30:44;;;;;;;;;;;22.20;52.50;;;;;;5076092;28;19924;-44
2024/03/18 10:33:10;;;;;;;;;;;22.20;52.50;;;;;;5068362;28;19928;-45
2024/03/18 10:35:36;;;;;;;;;;;22.30;52.50;;;;;;5074287;28;19917;-45
2024/03/18 10:38:03;;;;;;;;;;;22.20;52.40;;;;;;5065788;28;19913;-44
2024/03/18 10:40:36;;;;;;;;;;;22.20;52.40;;;;;;5073898;28;19912;-45
2024/03/18 10:43:02;;;;;;;;;;;22.20;52.40;;;;;;5073249;28;20059;-45
2024/03/18 10:45:28;;;;;;;;;;;22.10;52.40;;;;;;5080790;28;20265;-45
2024/03/18 10:47:55;;;;;;;;;;;22.20;52.50;;;;;;5080713;28;19964;-44
2024/03/18 10:50:21;;;;;;;;;;;22.20;52.50;;;;;;5080034;28;19927;-45
2024/03/18 10:52:47;;;;;;;;;;;22.20;52.40;;;;;;5071967;28;19914;-45
2024/03/18 10:55:14;;;;;;;;;;;22.20;52.40;;;;;;5073625;28;20659;-46
2024/03/18 10:57:40;;;;;;;;;;;22.20;52.40;;;;;;5074222;28;19935;-46
2024/03/18 11:00:11;;;;;;;;;;;22.10;52.40;;;;;;5071854;28;19913;-45
2024/03/18 11:02:37;;;;;;;;;;;22.10;52.40;;;;;;5065279;28;19995;-45
2024/03/18 11:05:03;;;;;;;;;;;22.10;52.40;;;;;;5081343;28;19954;-47
2024/03/18 11:07:31;;;;;;;;;;;22.20;52.40;;;;;;5073322;28;19917;-46
2024/03/18 11:10:05;;;;;;;;;;;22.20;52.40;;;;;;5067492;28;19912;-45
2024/03/18 11:12:33;;;;;;;;;;;22.20;52.30;;;;;;5073068;28;19934;-44
2024/03/18 11:15:05;;;;;;;;;;;22.20;52.40;;;;;;5080835;28;19979;-45
2024/03/18 11:17:31;;;;;;;;;;;22.10;52.30;;;;;;5079904;28;19920;-46
2024/03/18 11:20:01;;;;;;;;;;;22.10;52.30;;;;;;5079786;28;19951;-45
2024/03/18 11:22:27;;;;;;;;;;;22.10;52.40;;;;;;5070409;28;19979;-45
2024/03/18 11:24:53;;;;;;;;;;;22.20;52.30;;;;;;5073908;28;19904;-46
2024/03/18 11:27:20;;;;;;;;;;;22.20;52.30;;;;;;5072348;28;19913;-47
2024/03/18 11:29:49;;;;;;;;;;;22.20;52.30;;;;;;5078630;28;20598;-46
2024/03/18 11:32:15;;;;;;;;;;;22.10;52.20;;;;;;5075589;28;19936;-46
2024/03/18 11:34:41;;;;;;;;;;;22.10;52.30;;;;;;5079924;28;20384;-45
2024/03/18 11:37:11;;;;;;;;;;;22.10;52.30;;;;;;5065074;28;19962;-46
2024/03/18 11:39:36;;;;;;;;;;;22.20;52.30;;;;;;5090540;28;19982;-44
2024/03/18 11:42:05;;;;;;;;;;;22.20;52.30;;;;;;5077614;28;19909;-44
2024/03/18 11:44:32;;;;;;;;;;;22.10;52.20;;;;;;5076246;28;19932;-45
2024/03/18 11:47:02;;;;;;;;;;;22.10;52.20;;;;;;5075658;28;19935;-45
2024/03/18 11:49:29;;;;;;;;;;;22.10;52.80;;;;;;5076339;28;19964;-43
2024/03/18 11:51:56;;;;;;;;;;;22.10;52.30;;;;;;5078760;28;19958;-44
2024/03/18 11:54:22;;;;;;;;;;;22.10;52.30;;;;;;5082778;28;19916;-43
2024/03/18 11:56:49;;;;;;;;;;;22.20;52.20;;;;;;5083472;28;19908;-44
2024/03/18 11:59:15;;;;;;;;;;;22.20;52.20;;;;;;5082407;28;19908;-44
2024/03/18 12:01:41;;;;;;;;;;;22.10;52.10;;;;;;5080931;28;20305;-44
2024/03/18 12:04:07;;;;;;;;;;;22.10;52.10;;;;;;5069127;28;19935;-44
2024/03/18 12:06:38;;;;;;;;;;;22.10;52.10;;;;;;5076325;28;20621;-46
2024/03/18 12:09:04;;;;;;;;;;;22.10;52.20;;;;;;5076507;28;19921;-44
2024/03/18 12:11:31;;;;;;;;;;;22.10;52.20;;;;;;5073932;28;19999;-42
2024/03/18 12:13:57;;;;;;;;;;;22.20;52.20;;;;;;5076947;28;19908;-43
2024/03/18 12:16:23;;;;;;;;;;;22.20;52.10;;;;;;5074926;28;20257;-43
2024/03/18 12:18:48;;;;;;;;;;;22.10;52.00;;;;;;5078135;28;19955;-44
2024/03/18 12:21:15;;;;;;;;;;;22.10;52.10;;;;;;5080484;28;19930;-47
2024/03/18 12:29:09;;;;;;;;;;;22.10;52.10;;;;;;5072480;28;20281;-46
2024/03/18 12:31:36;;;;;;;;;;;22.20;52.10;;;;;;5089244;28;19983;-44
2024/03/18 12:34:02;;;;;;;;;;;22.10;52.00;;;;;;5076064;28;19912;-44
2024/03/18 12:36:29;;;;;;;;;;;22.10;52.00;;;;;;5073033;28;19919;-45
2024/03/18 12:38:58;;;;;;;;;;;22.10;52.00;;;;;;5079063;28;19934;-45
2024/03/18 12:41:24;;;;;;;;;;;22.10;52.10;;;;;;5082171;28;19966;-46
2024/03/18 12:43:50;;;;;;;;;;;22.10;52.00;;;;;;5082874;28;19931;-45
2024/03/18 12:46:19;;;;;;;;;;;22.20;52.00;;;;;;5074236;28;19923;-44
2024/03/18 12:48:45;;;;;;;;;;;22.20;52.00;;;;;;5072269;28;19991;-45
2024/03/18 12:51:11;;;;;;;;;;;22.10;51.90;;;;;;5068345;28;19918;-45
2024/03/18 12:53:37;;;;;;;;;;;22.10;51.90;;;;;;5068458;28;20297;-46
2024/03/18 12:56:06;;;;;;;;;;;22.10;52.00;;;;;;5078791;28;19920;-49
2024/03/18 12:58:35;;;;;;;;;;;22.10;52.00;;;;;;5085020;28;19935;-46
2024/03/18 13:01:02;;;;;;;;;;;22.20;51.90;;;;;;5071918;28;20004;-51
2024/03/18 13:03:28;;;;;;;;;;;22.20;51.90;;;;;;5071635;28;19913;-49
2024/03/18 13:05:53;;;;;;;;;;;22.10;51.80;;;;;;5066589;28;19924;-48
2024/03/18 13:08:19;;;;;;;;;;;22.10;51.80;;;;;;5066100;28;19913;-44
2024/03/18 13:10:46;;;;;;;;;;;22.10;51.80;;;;;;5076625;28;20167;-45
2024/03/18 13:13:13;;;;;;;;;;;22.10;51.80;;;;;;5075944;28;19912;-46
2024/03/18 13:15:42;;;;;;;;;;;22.20;51.80;;;;;;5071631;28;19913;-44
2024/03/18 13:18:09;;;;;;;;;;;22.20;51.70;;;;;;5070993;28;19916;-43
2024/03/18 13:20:35;;;;;;;;;;;22.20;51.70;;;;;;5067386;28;19912;-50
2024/03/18 13:23:01;;;;;;;;;;;22.20;51.70;;;;;;5074661;28;19912;-44
2024/03/18 13:25:27;;;;;;;;;;;22.10;51.70;;;;;;5073642;28;19920;-47
2024/03/18 13:27:53;;;;;;;;;;;22.10;51.60;;;;;;5071652;28;19935;-46
2024/03/18 13:30:20;;;;;;;;;;;22.20;51.70;;;;;;5072556;28;19942;-47
2024/03/18 13:32:46;;;;;;;;;;;22.20;51.60;;;;;;5072040;28;19920;-46
2024/03/18 13:35:12;;;;;;;;;;;22.20;51.50;;;;;;5074363;28;19908;-44
2024/03/18 13:37:38;;;;;;;;;;;22.20;51.50;;;;;;5080330;28;19913;-46
2024/03/18 13:40:07;;;;;;;;;;;22.10;51.50;;;;;;5071661;28;20322;-43
2024/03/18 13:42:32;;;;;;;;;;;22.10;51.50;;;;;;5073445;28;19912;-44
2024/03/18 13:44:58;;;;;;;;;;;22.10;51.50;;;;;;5071961;28;19917;-46
2024/03/18 13:47:24;;;;;;;;;;;22.20;51.50;;;;;;5074262;28;19913;-44
2024/03/18 13:49:50;;;;;;;;;;;22.20;51.40;;;;;;5081173;28;19920;-42
2024/03/18 13:52:16;;;;;;;;;;;22.20;51.40;;;;;;5070413;28;19917;-42
2024/03/18 13:54:42;;;;;;;;;;;22.20;51.30;;;;;;5070794;28;19913;-44
2024/03/18 13:57:08;;;;;;;;;;;22.10;51.30;;;;;;5070840;28;19981;-45
2024/03/18 13:59:39;;;;;;;;;;;22.10;51.30;;;;;;5064052;28;19912;-44
2024/03/18 14:02:07;;;;;;;;;;;22.20;51.20;;;;;;5065724;28;19913;-43
2024/03/18 14:04:34;;;;;;;;;;;22.20;51.10;;;;;;5070053;28;19981;-48
2024/03/18 14:07:05;;;;;;;;;;;22.20;51.10;;;;;;5078073;28;19939;-43
2024/03/18 14:09:31;;;;;;;;;;;22.20;51.10;;;;;;5074035;28;19966;-42
2024/03/18 14:11:59;;;;;;;;;;;22.20;51.00;;;;;;5073053;28;19912;-42
2024/03/18 14:14:27;;;;;;;;;;;22.10;51.00;;;;;;5080707;28;19912;-43
2024/03/18 14:16:54;;;;;;;;;;;22.10;51.00;;;;;;5080224;28;19965;-44
2024/03/18 14:19:20;;;;;;;;;;;22.20;51.00;;;;;;5067925;28;19913;-44